Time;durP1;ratioP1;P1;durP2;ratioP2;P2;SDS_P1;SDS_P2;PMS_P1;PMS_P2;Temp;Humidity;BMP_temperature;BMP_pressure;BME280_temperature;BME280_humidity;BME280_pressure;Samples;Min_cycle;Max_cycle;Signal;HPM_P1;HPM_P2
2023/06/14 00:01:45;;;;;;;1999.90;999.90;;;;;;;13.46;100.00;94864.75;5066220;28;20170;-71
2023/06/14 00:04:11;;;;;;;1999.90;999.90;;;;;;;13.40;100.00;94855.53;5066066;28;20239;-72
2023/06/14 00:06:36;;;;;;;1999.90;999.90;;;;;;;13.36;100.00;94852.13;5065959;28;20174;-72
2023/06/14 00:09:01;;;;;;;1999.90;999.90;;;;;;;13.32;100.00;94861.22;5066609;28;20202;-73
2023/06/14 00:11:27;;;;;;;1999.90;999.90;;;;;;;13.30;100.00;94857.38;5066132;28;20178;-73
2023/06/14 00:13:52;;;;;;;1999.90;999.90;;;;;;;13.25;100.00;94849.66;5066098;28;20200;-73
2023/06/14 00:16:19;;;;;;;1999.90;999.90;;;;;;;13.21;100.00;94854.47;5065624;28;20281;-71
2023/06/14 00:18:45;;;;;;;1999.90;999.90;;;;;;;13.17;100.00;94854.59;5066587;28;20292;-72
2023/06/14 00:21:12;;;;;;;1999.90;999.90;;;;;;;13.09;100.00;94852.47;5065725;28;20194;-71
2023/06/14 00:23:37;;;;;;;1999.90;999.90;;;;;;;13.07;100.00;94844.66;5065965;28;20365;-73
2023/06/14 00:26:03;;;;;;;1999.90;999.90;;;;;;;13.02;100.00;94847.16;5065820;28;20170;-71
2023/06/14 00:28:28;;;;;;;1999.90;999.90;;;;;;;12.99;100.00;94845.28;5065790;28;20236;-72
2023/06/14 00:30:53;;;;;;;1999.90;999.90;;;;;;;12.91;100.00;94841.94;5066398;28;20178;-72
2023/06/14 00:33:19;;;;;;;1999.90;999.90;;;;;;;12.89;100.00;94838.06;5065827;28;20178;-72
2023/06/14 00:35:44;;;;;;;1999.90;999.90;;;;;;;12.85;100.00;94840.91;5065673;28;20174;-72
2023/06/14 00:38:10;;;;;;;1999.90;999.90;;;;;;;12.82;100.00;94843.75;5065746;28;20181;-72
2023/06/14 00:40:35;;;;;;;1999.90;999.90;;;;;;;12.78;100.00;94845.78;5066062;28;20178;-72
2023/06/14 00:43:00;;;;;;;1999.90;999.90;;;;;;;12.71;100.00;94844.00;5066367;28;20218;-72
2023/06/14 00:45:26;;;;;;;1999.90;999.90;;;;;;;12.70;100.00;94853.44;5065614;28;20181;-71
2023/06/14 00:47:55;;;;;;;1999.90;999.90;;;;;;;12.68;100.00;94852.31;5065208;28;20173;-72
2023/06/14 00:50:21;;;;;;;1999.90;999.90;;;;;;;12.66;100.00;94841.78;5065289;28;20269;-72
2023/06/14 00:52:47;;;;;;;1999.90;999.90;;;;;;;12.65;100.00;94847.69;5065410;28;20174;-71
2023/06/14 00:55:13;;;;;;;1999.90;999.90;;;;;;;12.62;100.00;94845.81;5064957;28;20182;-72
2023/06/14 00:57:39;;;;;;;1999.90;999.90;;;;;;;12.61;100.00;94845.03;5064911;28;20181;-71
2023/06/14 01:00:08;;;;;;;1999.90;999.90;;;;;;;12.60;100.00;94842.72;5065750;28;20182;-72
2023/06/14 01:02:37;;;;;;;1999.90;999.90;;;;;;;12.57;100.00;94849.09;5065119;28;20216;-71
2023/06/14 01:05:03;;;;;;;1999.90;999.90;;;;;;;12.57;100.00;94849.09;5065109;28;20362;-71
2023/06/14 01:07:57;;;;;;;1999.90;999.90;;;;;;;12.48;100.00;94848.91;5065175;28;20185;-71
2023/06/14 01:10:32;;;;;;;1999.90;999.90;;;;;;;12.39;100.00;94848.75;5065435;28;20316;-71
2023/06/14 01:13:10;;;;;;;1999.90;999.90;;;;;;;12.35;100.00;94842.59;5065214;28;20201;-71
2023/06/14 01:15:37;;;;;;;1999.90;999.90;;;;;;;12.32;100.00;94848.91;5065091;28;20225;-72
2023/06/14 01:18:04;;;;;;;1999.90;999.90;;;;;;;12.26;100.00;94850.59;5065103;28;20236;-71
2023/06/14 01:20:32;;;;;;;1999.90;999.90;;;;;;;12.27;100.00;94846.66;5065324;28;20173;-71
2023/06/14 01:22:57;;;;;;;1999.90;999.90;;;;;;;12.22;100.00;94841.72;5065320;28;20178;-71
2023/06/14 01:25:23;;;;;;;1999.90;999.90;;;;;;;12.18;100.00;94843.75;5065234;28;20170;-71
2023/06/14 01:27:52;;;;;;;1999.90;999.90;;;;;;;12.14;100.00;94845.81;5064957;28;20517;-72
2023/06/14 01:30:19;;;;;;;1999.90;999.90;;;;;;;12.11;100.00;94850.19;5064574;28;20268;-71
2023/06/14 01:32:46;;;;;;;1999.90;999.90;;;;;;;12.11;100.00;94838.44;5064631;28;20184;-72
2023/06/14 01:35:11;;;;;;;1999.90;999.90;;;;;;;12.03;100.00;94848.03;5064520;28;20181;-71
2023/06/14 01:37:39;;;;;;;1999.90;999.90;;;;;;;12.03;100.00;94831.59;5065006;28;20177;-72
2023/06/14 01:40:06;;;;;;;1999.90;999.90;;;;;;;11.97;100.00;94827.81;5064964;28;20184;-71
2023/06/14 01:42:35;;;;;;;1999.90;999.90;;;;;;;11.92;100.00;94831.84;5061381;28;20181;-72
2023/06/14 01:45:02;;;;;;;1999.90;999.90;;;;;;;11.93;100.00;94835.34;5064079;28;20180;-71
2023/06/14 01:47:28;;;;;;;1999.90;999.90;;;;;;;11.87;100.00;94828.84;5064301;28;20173;-72
2023/06/14 01:49:53;;;;;;;1999.90;999.90;;;;;;;11.84;100.00;94830.44;5064332;28;20212;-71
2023/06/14 01:52:19;;;;;;;1999.90;999.90;;;;;;;11.83;100.00;94828.91;5064668;28;20249;-71
2023/06/14 01:54:44;;;;;;;1999.90;999.90;;;;;;;11.79;100.00;94821.97;5064685;28;20184;-71
2023/06/14 01:57:11;;;;;;;1999.90;999.90;;;;;;;11.76;100.00;94829.06;5064391;28;20215;-71
2023/06/14 01:59:37;;;;;;;1999.90;999.90;;;;;;;11.75;100.00;94832.22;5064122;28;20495;-72
2023/06/14 02:02:03;;;;;;;1999.90;999.90;;;;;;;11.68;100.00;94837.84;5064567;28;20178;-71
2023/06/14 02:04:28;;;;;;;1999.90;999.90;;;;;;;11.69;100.00;94833.94;5064013;28;20177;-72
2023/06/14 02:06:54;;;;;;;1999.90;999.90;;;;;;;11.70;100.00;94835.47;5064340;28;20174;-71
2023/06/14 02:09:19;;;;;;;1999.90;999.90;;;;;;;11.65;100.00;94833.25;5064738;28;20284;-71
2023/06/14 02:11:44;;;;;;;1999.90;999.90;;;;;;;11.62;100.00;94842.28;5063930;28;20189;-72
2023/06/14 02:14:11;;;;;;;1999.90;999.90;;;;;;;11.61;100.00;94827.06;5064405;28;20207;-71
2023/06/14 02:16:38;;;;;;;1999.90;999.90;;;;;;;11.58;100.00;94830.63;5063515;28;20225;-72
2023/06/14 02:19:04;;;;;;;1999.90;999.90;;;;;;;11.57;100.00;94831.81;5063857;28;20303;-71
2023/06/14 02:21:30;;;;;;;1999.90;999.90;;;;;;;11.56;100.00;94831.06;5063831;28;20178;-71
2023/06/14 02:23:55;;;;;;;1999.90;999.90;;;;;;;11.54;100.00;94827.19;5064352;28;20174;-71
2023/06/14 02:26:22;;;;;;;1999.90;999.90;;;;;;;11.50;100.00;94821.78;5064342;28;20176;-71
2023/06/14 02:28:47;;;;;;;1999.90;999.90;;;;;;;11.48;100.00;94826.16;5064184;28;20206;-71
2023/06/14 02:31:13;;;;;;;1999.90;999.90;;;;;;;11.48;100.00;94823.41;5063814;28;20181;-71
2023/06/14 02:33:38;;;;;;;1999.90;999.90;;;;;;;11.46;100.00;94821.09;5063699;28;20181;-71
2023/06/14 02:36:04;;;;;;;1999.90;999.90;;;;;;;11.45;100.00;94824.25;5063789;28;20184;-71
2023/06/14 02:38:29;;;;;;;1999.90;999.90;;;;;;;11.43;100.00;94826.63;5064094;28;20230;-71
2023/06/14 02:40:55;;;;;;;1999.90;999.90;;;;;;;11.42;100.00;94831.34;5063735;28;20181;-71
2023/06/14 02:43:20;;;;;;;1999.90;999.90;;;;;;;11.40;100.00;94830.22;5064108;28;20174;-71
2023/06/14 02:45:45;;;;;;;1999.90;999.90;;;;;;;11.39;100.00;94828.66;5063705;28;20178;-70
2023/06/14 02:48:11;;;;;;;1999.90;999.90;;;;;;;11.32;100.00;94826.06;5063603;28;20236;-71
2023/06/14 02:50:36;;;;;;;1999.90;999.90;;;;;;;11.24;100.00;94825.47;5063966;28;20220;-71
2023/06/14 02:53:03;;;;;;;1999.90;999.90;;;;;;;11.14;100.00;94836.63;5063483;28;20181;-71
2023/06/14 02:55:28;;;;;;;1999.90;999.90;;;;;;;11.03;100.00;94841.50;5063559;28;20183;-71
2023/06/14 02:57:54;;;;;;;1999.90;999.90;;;;;;;11.00;100.00;94832.16;5063899;28;20174;-71
2023/06/14 03:00:20;;;;;;;1999.90;999.90;;;;;;;10.93;100.00;94837.75;5063531;28;20185;-70
2023/06/14 03:02:46;;;;;;;1999.90;999.90;;;;;;;10.88;100.00;94834.75;5063431;28;20170;-70
2023/06/14 03:05:12;;;;;;;1999.90;999.90;;;;;;;10.81;100.00;94845.81;5063516;28;20188;-71
2023/06/14 03:07:40;;;;;;;1999.90;999.90;;;;;;;10.75;100.00;94833.81;5063435;28;20197;-71
2023/06/14 03:10:09;;;;;;;1999.90;999.90;;;;;;;10.75;100.00;94834.59;5063829;28;20212;-70
2023/06/14 03:12:35;;;;;;;1999.90;999.90;;;;;;;10.78;100.00;94841.94;5063270;28;20174;-71
2023/06/14 03:15:01;;;;;;;1999.90;999.90;;;;;;;10.75;100.00;94842.03;5063416;28;20228;-70
2023/06/14 03:17:29;;;;;;;1999.90;999.90;;;;;;;10.75;100.00;94845.53;5063630;28;20273;-71
2023/06/14 03:19:55;;;;;;;1999.90;999.90;;;;;;;10.77;100.00;94839.63;5066186;28;20191;-70
2023/06/14 03:22:21;;;;;;;1999.90;999.90;;;;;;;10.75;100.00;94847.47;5067006;28;20208;-70
2023/06/14 03:24:47;;;;;;;1999.90;999.90;;;;;;;10.78;100.00;94852.13;5067065;28;20242;-70
2023/06/14 03:27:14;;;;;;;1999.90;999.90;;;;;;;10.79;100.00;94853.66;5066935;28;20176;-71
2023/06/14 03:29:39;;;;;;;1999.90;999.90;;;;;;;10.82;100.00;94861.00;5067370;28;20302;-71
2023/06/14 03:32:05;;;;;;;1999.90;999.90;;;;;;;10.94;100.00;94863.13;5066781;28;20213;-70
2023/06/14 03:34:31;;;;;;;1999.90;999.90;;;;;;;10.99;100.00;94863.41;5067644;28;20172;-71
2023/06/14 03:36:56;;;;;;;1999.90;999.90;;;;;;;11.17;100.00;94858.38;5066793;28;20174;-70
2023/06/14 03:39:22;;;;;;;1999.90;999.90;;;;;;;11.40;100.00;94860.28;5066801;28;20176;-70
2023/06/14 03:41:47;;;;;;;1999.90;999.90;;;;;;;11.61;100.00;94860.66;5066601;28;20177;-71
2023/06/14 03:44:15;;;;;;;1999.90;999.90;;;;;;;11.83;100.00;94860.97;5066626;28;20169;-71
2023/06/14 03:46:41;;;;;;;1999.90;999.90;;;;;;;11.99;100.00;94861.00;5067070;28;20197;-71
2023/06/14 03:49:06;;;;;;;1999.90;999.90;;;;;;;12.25;100.00;94857.28;5066435;28;20505;-71
2023/06/14 03:51:32;;;;;;;1999.90;999.90;;;;;;;12.43;100.00;94858.38;5066937;28;20240;-71
2023/06/14 03:53:57;;;;;;;1999.90;999.90;;;;;;;12.68;100.00;94855.06;5066586;28;20204;-71
2023/06/14 03:56:22;;;;;;;1999.90;999.90;;;;;;;13.02;100.00;94863.59;5066430;28;20213;-71
2023/06/14 03:58:48;;;;;;;1999.90;999.90;;;;;;;13.34;100.00;94867.03;5066962;28;20178;-72
2023/06/14 04:01:14;;;;;;;1999.90;999.90;;;;;;;13.48;100.00;94879.59;5066627;28;20177;-72
2023/06/14 04:03:40;;;;;;;1999.90;999.90;;;;;;;13.85;100.00;94881.66;5066264;28;20457;-72
2023/06/14 04:06:06;;;;;;;1999.90;999.90;;;;;;;14.03;100.00;94892.13;5066260;28;20294;-72
2023/06/14 04:08:31;;;;;;;1999.90;999.90;;;;;;;14.36;100.00;94883.28;5066171;28;20242;-69
2023/06/14 04:10:57;;;;;;;1999.90;999.90;;;;;;;14.44;100.00;94884.59;5066310;28;20181;-70
2023/06/14 04:13:22;;;;;;;1999.90;999.90;;;;;;;14.48;100.00;94888.00;5066469;28;20190;-70
2023/06/14 04:15:48;;;;;;;1999.90;999.90;;;;;;;14.64;100.00;94898.88;5065841;28;20288;-71
2023/06/14 04:18:13;;;;;;;1999.90;999.90;;;;;;;15.01;100.00;94905.53;5066045;28;20176;-68
2023/06/14 04:20:40;;;;;;;1999.90;999.90;;;;;;;15.30;100.00;94906.13;5065957;28;20174;-69
2023/06/14 04:23:21;;;;;;;1999.90;999.90;;;;;;;15.38;100.00;94908.22;5066434;28;20174;-70
2023/06/14 04:25:47;;;;;;;1999.90;999.90;;;;;;;15.63;100.00;94908.09;5066345;28;20170;-72
2023/06/14 04:28:15;;;;;;;1999.90;999.90;;;;;;;15.64;100.00;94908.88;5066563;28;20198;-69
2023/06/14 04:30:40;;;;;;;1999.90;999.90;;;;;;;15.87;100.00;94911.97;5065339;28;20228;-71
2023/06/14 04:33:06;;;;;;;1999.90;999.90;;;;;;;16.11;100.00;94913.00;5066258;28;20170;-71
2023/06/14 04:35:35;;;;;;;1999.90;999.90;;;;;;;16.36;100.00;94923.13;5066318;28;20232;-72
2023/06/14 04:38:04;;;;;;;1999.90;999.90;;;;;;;16.49;100.00;94917.56;5066139;28;20170;-72
2023/06/14 04:40:29;;;;;;;1999.90;999.90;;;;;;;16.36;100.00;94915.59;5065475;28;20177;-71
2023/06/14 04:42:55;;;;;;;1999.90;999.90;;;;;;;16.47;100.00;94908.97;5065534;28;20178;-71
2023/06/14 04:45:21;;;;;;;1999.90;999.90;;;;;;;16.95;100.00;94905.44;5066003;28;20198;-71
2023/06/14 04:47:47;;;;;;;1999.90;999.90;;;;;;;17.26;100.00;94909.66;5065410;28;20170;-68
2023/06/14 04:50:12;;;;;;;1999.90;999.90;;;;;;;17.56;99.90;94905.28;5065237;28;20201;-70
2023/06/14 04:52:38;;;;;;;1999.90;999.90;;;;;;;17.85;97.26;94913.88;5065367;28;20174;-71
2023/06/14 04:55:04;;;;;;;1999.90;999.90;;;;;;;17.87;93.96;94925.22;5065658;28;20212;-70
2023/06/14 04:57:30;;;;;;;1999.90;999.90;;;;;;;18.05;92.02;94919.66;5065932;28;20170;-68
2023/06/14 04:59:57;;;;;;;1999.90;999.90;;;;;;;18.08;91.53;94919.53;5065101;28;20186;-69
2023/06/14 05:02:23;;;;;;;1999.90;999.90;;;;;;;18.13;93.32;94920.88;5065142;28;20282;-69
2023/06/14 05:04:49;;;;;;;1999.90;999.90;;;;;;;18.37;89.21;94916.25;5065022;28;20423;-69
2023/06/14 05:07:15;;;;;;;1999.90;999.90;;;;;;;18.74;87.61;94923.22;5065345;28;20174;-70
2023/06/14 05:09:40;;;;;;;1999.90;999.90;;;;;;;18.84;86.08;94931.00;5065402;28;20248;-69
2023/06/14 05:12:09;;;;;;;1999.90;999.90;;;;;;;18.75;84.54;94924.72;5064977;28;20224;-71
2023/06/14 05:14:35;;;;;;;1999.90;999.90;;;;;;;19.46;83.01;94936.72;5064626;28;20185;-71
2023/06/14 05:17:00;;;;;;;1999.90;999.90;;;;;;;19.53;81.75;94933.59;5064669;28;20331;-71
2023/06/14 05:19:26;;;;;;;1999.90;999.90;;;;;;;19.70;79.23;94934.69;5065323;28;20170;-70
2023/06/14 05:21:52;;;;;;;1999.90;999.90;;;;;;;19.87;77.89;94938.56;5065198;28;20196;-72
2023/06/14 05:24:17;;;;;;;1999.90;999.90;;;;;;;20.17;77.16;94940.19;5065042;28;20170;-72
2023/06/14 05:26:43;;;;;;;1999.90;999.90;;;;;;;20.37;75.79;94937.53;5064642;28;20205;-71
2023/06/14 05:29:09;;;;;;;1999.90;999.90;;;;;;;20.34;75.01;94938.47;5065075;28;20269;-72
2023/06/14 05:31:34;;;;;;;1999.90;999.90;;;;;;;20.67;74.49;94939.06;5064607;28;20189;-72
2023/06/14 05:33:59;;;;;;;1999.90;999.90;;;;;;;21.14;72.83;94938.06;5064498;28;20174;-72
2023/06/14 05:36:25;;;;;;;1999.90;999.90;;;;;;;21.47;71.18;94928.19;5064446;28;20174;-72
2023/06/14 05:38:51;;;;;;;1999.90;999.90;;;;;;;21.44;70.53;94936.72;5064744;28;20180;-72
2023/06/14 05:41:16;;;;;;;1999.90;999.90;;;;;;;21.79;68.47;94943.81;5063774;28;20176;-71
2023/06/14 05:43:42;;;;;;;1999.90;999.90;;;;;;;21.48;68.49;94935.28;5063857;28;20166;-71
2023/06/14 05:46:07;;;;;;;1999.90;999.90;;;;;;;21.78;68.15;94945.03;5063939;28;20220;-71
2023/06/14 05:48:32;;;;;;;1999.90;999.90;;;;;;;21.35;67.20;94943.16;5064151;28;20241;-71
2023/06/14 05:50:59;;;;;;;1999.90;999.90;;;;;;;21.20;68.94;94947.25;5064298;28;20204;-71
2023/06/14 05:53:24;;;;;;;1999.90;999.90;;;;;;;21.63;69.22;94944.31;5064356;28;20170;-70
2023/06/14 05:55:54;;;;;;;1999.90;999.90;;;;;;;21.24;69.60;94948.56;5064076;28;20174;-71
2023/06/14 05:58:20;;;;;;;1999.90;999.90;;;;;;;21.27;66.38;94942.03;5064508;28;20229;-71
2023/06/14 06:00:46;;;;;;;1999.90;999.90;;;;;;;20.51;69.97;94953.44;5064046;28;20185;-71
2023/06/14 06:03:12;;;;;;;1999.90;999.90;;;;;;;21.19;70.08;94942.91;5064552;28;20174;-71
2023/06/14 06:05:38;;;;;;;1999.90;999.90;;;;;;;21.96;68.93;94941.97;5064416;28;20177;-71
2023/06/14 06:08:04;;;;;;;1999.90;999.90;;;;;;;21.88;66.34;94949.22;5064357;28;20190;-71
2023/06/14 06:10:29;;;;;;;1999.90;999.90;;;;;;;22.38;64.38;94945.00;5063725;28;20269;-71
2023/06/14 06:12:55;;;;;;;1999.90;999.90;;;;;;;21.83;66.12;94952.69;5063774;28;20193;-71
2023/06/14 06:15:20;;;;;;;1999.90;999.90;;;;;;;21.69;67.98;94956.28;5063572;28;20174;-71
2023/06/14 06:17:46;;;;;;;1999.90;999.90;;;;;;;21.62;68.56;94956.69;5063890;28;20196;-71
2023/06/14 06:20:12;;;;;;;1999.90;999.90;;;;;;;22.37;63.40;94974.06;5064043;28;20186;-71
2023/06/14 06:22:38;;;;;;;1999.90;999.90;;;;;;;22.59;61.27;94964.44;5063598;28;20244;-71
2023/06/14 06:25:03;;;;;;;1999.90;999.90;;;;;;;22.88;60.95;94962.19;5063645;28;20247;-70
2023/06/14 06:27:29;;;;;;;1999.90;999.90;;;;;;;22.71;60.38;94966.06;5063619;28;20182;-71
2023/06/14 06:29:54;;;;;;;1999.90;999.90;;;;;;;22.58;60.35;94965.69;5063162;28;20209;-70
2023/06/14 06:32:20;;;;;;;1999.90;999.90;;;;;;;21.72;66.17;94966.47;5063853;28;20178;-70
2023/06/14 06:34:46;;;;;;;1999.90;999.90;;;;;;;21.86;66.32;94976.72;5064084;28;20174;-70
2023/06/14 06:37:11;;;;;;;1999.90;999.90;;;;;;;22.05;64.67;94972.44;5064243;28;20170;-71
2023/06/14 06:39:36;;;;;;;1999.90;999.90;;;;;;;22.66;61.91;94975.13;5063551;28;20174;-71
2023/06/14 06:42:02;;;;;;;1999.90;999.90;;;;;;;22.37;62.85;94971.28;5063699;28;20248;-70
2023/06/14 06:44:27;;;;;;;1999.90;999.90;;;;;;;22.71;62.48;94974.41;5063492;28;20169;-69
2023/06/14 06:46:52;;;;;;;1999.90;999.90;;;;;;;22.75;63.45;94977.75;5063941;28;20212;-70
2023/06/14 06:49:18;;;;;;;1999.90;999.90;;;;;;;23.39;58.29;94975.28;5063528;28;20228;-69
2023/06/14 06:51:44;;;;;;;1999.90;999.90;;;;;;;24.53;53.48;94984.72;5063475;28;20174;-70
2023/06/14 06:54:10;;;;;;;1999.90;999.90;;;;;;;25.08;53.65;94979.25;5066245;28;20173;-71
2023/06/14 06:56:36;;;;;;;1999.90;999.90;;;;;;;25.59;50.10;94984.34;5067448;28;20166;-70
2023/06/14 06:59:01;;;;;;;1999.90;999.90;;;;;;;25.02;51.15;94984.09;5067377;28;20170;-70
2023/06/14 07:01:28;;;;;;;1999.90;999.90;;;;;;;25.17;52.64;94984.59;5067473;28;20169;-68
2023/06/14 07:03:54;;;;;;;1999.90;999.90;;;;;;;25.11;52.88;94986.63;5067745;28;20173;-68
2023/06/14 07:06:20;;;;;;;1999.90;999.90;;;;;;;24.91;52.94;94978.50;5067302;28;20186;-70
2023/06/14 07:08:48;;;;;;;1999.90;999.90;;;;;;;25.66;50.10;94981.00;5067238;28;20243;-70
2023/06/14 07:11:13;;;;;;;1999.90;999.90;;;;;;;25.34;49.37;94991.72;5067196;28;20190;-70
2023/06/14 07:13:38;;;;;;;1999.90;999.90;;;;;;;26.51;47.23;94987.34;5066753;28;20247;-70
2023/06/14 07:16:04;;;;;;;1999.90;999.90;;;;;;;25.56;48.40;94982.56;5067052;28;20241;-70
2023/06/14 07:18:30;;;;;;;1999.90;999.90;;;;;;;26.01;48.65;94986.06;5067481;28;20173;-71
2023/06/14 07:20:56;;;;;;;1999.90;999.90;;;;;;;25.79;48.09;94995.25;5067087;28;20177;-70
2023/06/14 07:23:22;;;;;;;1999.90;999.90;;;;;;;25.64;48.17;94994.78;5067574;28;20194;-69
2023/06/14 07:25:47;;;;;;;1999.90;999.90;;;;;;;26.50;46.58;94997.06;5066814;28;20264;-70
2023/06/14 07:28:13;;;;;;;1999.90;999.90;;;;;;;26.40;47.11;95004.22;5067102;28;20166;-69
2023/06/14 07:30:38;;;;;;;1999.90;999.90;;;;;;;27.77;41.61;94996.19;5067326;28;20197;-69
2023/06/14 07:33:03;;;;;;;1999.90;999.90;;;;;;;27.56;40.74;94995.88;5067447;28;20170;-70
2023/06/14 07:35:29;;;;;;;1999.90;999.90;;;;;;;27.37;40.41;95011.84;5067266;28;20174;-70
2023/06/14 07:37:54;;;;;;;1999.90;999.90;;;;;;;26.90;41.74;95004.00;5067062;28;20219;-69
2023/06/14 07:40:20;;;;;;;1999.90;999.90;;;;;;;27.46;40.38;95002.34;5067177;28;20212;-69
2023/06/14 07:42:45;;;;;;;1999.90;999.90;;;;;;;26.38;42.47;95006.78;5066857;28;20167;-71
2023/06/14 07:45:14;;;;;;;1999.90;999.90;;;;;;;26.89;42.56;95000.44;5066681;28;20166;-71
2023/06/14 07:47:39;;;;;;;1999.90;999.90;;;;;;;26.87;41.47;95014.19;5066229;28;20172;-72
2023/06/14 07:50:05;;;;;;;1999.90;999.90;;;;;;;26.78;39.27;95008.91;5066796;28;20194;-70
2023/06/14 07:52:30;;;;;;;1999.90;999.90;;;;;;;27.53;37.89;95008.13;5066335;28;20173;-70
2023/06/14 07:54:56;;;;;;;1999.90;999.90;;;;;;;27.65;39.56;95011.63;5066513;28;20166;-69
2023/06/14 07:57:22;;;;;;;1999.90;999.90;;;;;;;27.89;39.92;95006.03;5066352;28;20225;-69
2023/06/14 07:59:47;;;;;;;1999.90;999.90;;;;;;;27.72;36.05;95014.59;5066285;28;20215;-70
2023/06/14 08:02:13;;;;;;;1999.90;999.90;;;;;;;27.39;37.25;95014.13;5066183;28;20168;-71
2023/06/14 08:04:38;;;;;;;1999.90;999.90;;;;;;;25.98;37.48;95012.28;5065802;28;20249;-70
2023/06/14 08:07:04;;;;;;;1999.90;999.90;;;;;;;26.68;37.59;95002.09;5066176;28;20166;-70
2023/06/14 08:09:29;;;;;;;1999.90;999.90;;;;;;;26.79;35.83;95007.63;5066571;28;20212;-64
2023/06/14 08:11:55;;;;;;;1999.90;999.90;;;;;;;26.40;35.48;95015.44;5066596;28;20173;-73
2023/06/14 08:14:21;;;;;;;1999.90;999.90;;;;;;;25.67;36.44;95009.78;5066034;28;20219;-80
2023/06/14 08:16:46;;;;;;;1999.90;999.90;;;;;;;26.64;36.12;95012.81;5065785;28;20243;-76
2023/06/14 08:19:12;;;;;;;1999.90;999.90;;;;;;;26.34;37.42;95011.91;5066593;28;20184;-75
2023/06/14 08:21:37;;;;;;;1999.90;999.90;;;;;;;27.36;35.01;95013.13;5066086;28;20184;-70
2023/06/14 08:24:03;;;;;;;1999.90;999.90;;;;;;;27.69;32.88;95021.28;5065910;28;20195;-68
2023/06/14 08:26:29;;;;;;;1999.90;999.90;;;;;;;26.50;34.73;95019.47;5065805;28;20167;-69
2023/06/14 08:28:55;;;;;;;1999.90;999.90;;;;;;;26.76;35.03;95025.47;5065516;28;20209;-67
2023/06/14 08:31:22;;;;;;;1999.90;999.90;;;;;;;27.68;34.33;95021.78;5066441;28;20165;-68
2023/06/14 08:33:47;;;;;;;1999.90;999.90;;;;;;;29.19;31.84;95021.06;5066348;28;20185;-68
2023/06/14 08:36:13;;;;;;;1999.90;999.90;;;;;;;28.73;31.41;95034.75;5066035;28;20162;-68
2023/06/14 08:38:39;;;;;;;1999.90;999.90;;;;;;;28.00;33.06;95020.72;5066072;28;20162;-68
2023/06/14 08:41:06;;;;;;;1999.90;999.90;;;;;;;28.23;32.44;95030.44;5066022;28;20162;-68
2023/06/14 08:43:31;;;;;;;1999.90;999.90;;;;;;;27.59;33.99;95016.50;5066100;28;20253;-68
2023/06/14 08:46:03;;;;;;;1999.90;999.90;;;;;;;28.16;31.05;95033.81;5065454;28;20173;-68
2023/06/14 08:48:29;;;;;;;1999.90;999.90;;;;;;;28.45;31.53;95034.31;5065913;28;20166;-67
2023/06/14 08:51:01;;;;;;;1999.90;999.90;;;;;;;27.97;30.71;95033.00;5065378;28;20166;-69
2023/06/14 08:53:28;;;;;;;1999.90;999.90;;;;;;;27.30;32.82;95029.25;5066023;28;20167;-68
2023/06/14 08:55:55;;;;;;;1999.90;999.90;;;;;;;27.48;33.13;95034.22;5065772;28;20166;-68
2023/06/14 08:58:24;;;;;;;1999.90;999.90;;;;;;;26.92;32.72;95040.69;5065360;28;20166;-69
2023/06/14 09:00:52;;;;;;;1999.90;999.90;;;;;;;28.04;32.26;95018.38;5065148;28;20170;-70
2023/06/14 09:03:20;;;;;;;1999.90;999.90;;;;;;;28.25;30.93;95030.69;5065667;28;20258;-70
2023/06/14 09:05:46;;;;;;;1999.90;999.90;;;;;;;29.02;31.24;95019.81;5065071;28;20196;-68
2023/06/14 09:08:11;;;;;;;1999.90;999.90;;;;;;;29.47;31.60;95026.25;5065128;28;20174;-70
2023/06/14 09:10:37;;;;;;;1999.90;999.90;;;;;;;29.40;30.29;95038.91;5065408;28;20198;-69
2023/06/14 09:13:04;;;;;;;1999.90;999.90;;;;;;;28.65;31.18;95042.25;5065473;28;20197;-68
2023/06/14 09:15:30;;;;;;;1999.90;999.90;;;;;;;27.87;31.75;95028.28;5064633;28;20224;-68
2023/06/14 09:17:56;;;;;;;1999.90;999.90;;;;;;;26.92;33.13;95026.66;5063817;28;20166;-68
2023/06/14 09:20:24;;;;;;;1999.90;999.90;;;;;;;27.35;31.68;95044.53;5064837;28;20165;-68
2023/06/14 09:22:50;;;;;;;1999.90;999.90;;;;;;;27.29;32.93;95038.94;5064769;28;20252;-70
2023/06/14 09:25:15;;;;;;;1999.90;999.90;;;;;;;28.12;32.06;95041.78;5064852;28;20226;-70
2023/06/14 09:27:42;;;;;;;1999.90;999.90;;;;;;;27.77;33.72;95027.84;5064639;28;20162;-69
2023/06/14 09:30:09;;;;;;;1999.90;999.90;;;;;;;28.16;32.69;95031.03;5064689;28;20190;-68
2023/06/14 09:32:41;;;;;;;1999.90;999.90;;;;;;;28.17;32.23;95026.94;5064535;28;20246;-69
2023/06/14 09:35:08;;;;;;;1999.90;999.90;;;;;;;26.07;36.74;95023.94;5065326;28;20166;-69
2023/06/14 09:37:35;;;;;;;1999.90;999.90;;;;;;;25.53;37.61;95036.72;5064642;28;20162;-68
2023/06/14 09:40:01;;;;;;;1999.90;999.90;;;;;;;25.96;37.33;95037.97;5064351;28;20166;-68
2023/06/14 09:42:28;;;;;;;1999.90;999.90;;;;;;;26.70;36.41;95043.63;5064295;28;20165;-67
2023/06/14 09:44:55;;;;;;;1999.90;999.90;;;;;;;25.90;36.95;95051.22;5064940;28;20170;-68
2023/06/14 09:47:22;;;;;;;1999.90;999.90;;;;;;;25.16;38.41;95045.34;5064326;28;20241;-67
2023/06/14 09:49:50;;;;;;;1999.90;999.90;;;;;;;25.25;39.49;95030.34;5064301;28;20190;-67
2023/06/14 09:52:18;;;;;;;1999.90;999.90;;;;;;;26.49;37.25;95037.56;5064278;28;20173;-67
2023/06/14 09:54:48;;;;;;;1999.90;999.90;;;;;;;26.29;37.17;95049.09;5064096;28;20237;-67
2023/06/14 09:57:15;;;;;;;1999.90;999.90;;;;;;;26.64;35.68;95046.44;5064634;28;20173;-67
2023/06/14 09:59:47;;;;;;;1999.90;999.90;;;;;;;28.01;34.31;95041.16;5064039;28;20237;-68
2023/06/14 10:02:23;;;;;;;1999.90;999.90;;;;;;;28.17;33.90;95041.00;5064639;28;20173;-68
2023/06/14 10:04:57;;;;;;;1999.90;999.90;;;;;;;27.69;34.07;95042.97;5064547;28;20165;-67
2023/06/14 10:07:26;;;;;;;1999.90;999.90;;;;;;;27.44;34.00;95044.19;5064860;28;20203;-68
2023/06/14 10:09:53;;;;;;;1999.90;999.90;;;;;;;26.36;35.05;95048.56;5064362;28;20227;-67
2023/06/14 10:12:21;;;;;;;1999.90;999.90;;;;;;;26.43;35.35;95048.03;5063801;28;20280;-68
2023/06/14 10:14:53;;;;;;;1999.90;999.90;;;;;;;24.44;36.36;95035.22;5064298;28;20182;-68
2023/06/14 10:17:46;;;;;;;1999.90;999.90;;;;;;;25.60;35.16;95039.00;5063709;28;20289;-68
2023/06/14 10:20:33;;;;;;;1999.90;999.90;;;;;;;25.13;36.71;95040.00;5063539;28;20181;-68
2023/06/14 10:23:10;;;;;;;1999.90;999.90;;;;;;;25.17;35.72;95034.94;5064325;28;20211;-68
2023/06/14 10:25:35;;;;;;;1999.90;999.90;;;;;;;26.28;35.53;95036.38;5064269;28;20166;-70
2023/06/14 10:28:16;;;;;;;1999.90;999.90;;;;;;;26.09;35.62;95046.59;5063482;28;20191;-69
2023/06/14 10:31:05;;;;;;;1999.90;999.90;;;;;;;27.29;35.18;95032.56;5063620;28;20200;-72
2023/06/14 10:33:31;;;;;;;1999.90;999.90;;;;;;;26.46;35.62;95030.19;5064204;28;20158;-83
2023/06/14 10:36:22;;;;;;;1999.90;999.90;;;;;;;26.85;34.88;95025.19;5064167;28;20178;-74
2023/06/14 10:39:08;;;;;;;1999.90;999.90;;;;;;;26.49;35.90;95029.16;5063914;28;20276;-78
2023/06/14 10:41:41;;;;;;;1999.90;999.90;;;;;;;25.55;37.13;95036.97;5063595;28;20162;-81
2023/06/14 10:44:12;;;;;;;1999.90;999.90;;;;;;;24.18;39.49;95040.19;5063513;28;20177;-77
2023/06/14 10:46:38;;;;;;;1999.90;999.90;;;;;;;24.41;39.16;95036.22;5063667;28;20208;-78
2023/06/14 10:49:03;;;;;;;1999.90;999.90;;;;;;;25.45;38.20;95032.91;5063937;28;20193;-68